createdAt,value
2022-11-18T00:00:31.983Z,4.50
2022-11-18T00:03:00.294Z,3.13
2022-11-18T00:05:30.024Z,3.40
2022-11-18T00:07:58.670Z,3.37
2022-11-18T00:10:27.090Z,4.57
2022-11-18T00:13:12.977Z,3.77
2022-11-18T00:15:41.336Z,4.23
2022-11-18T00:18:09.745Z,4.23
2022-11-18T00:20:39.460Z,4.70
2022-11-18T00:23:07.846Z,4.30
2022-11-18T00:25:36.253Z,4.80
2022-11-18T00:28:04.642Z,5.13
2022-11-18T00:30:32.965Z,4.07
2022-11-18T00:33:01.319Z,3.57
2022-11-18T00:35:29.707Z,4.87
2022-11-18T00:37:59.649Z,2.97
2022-11-18T00:40:27.982Z,5.10
2022-11-18T00:42:56.323Z,4.17
2022-11-18T00:45:25.233Z,3.23
2022-11-18T00:47:53.572Z,5.67
2022-11-18T00:50:21.869Z,4.53
2022-11-18T00:52:50.206Z,5.07
2022-11-18T00:55:19.929Z,4.77
2022-11-18T00:57:48.285Z,5.87
2022-11-18T01:00:16.739Z,5.43
2022-11-18T01:02:45.165Z,6.20
2022-11-18T01:05:13.487Z,6.43
2022-11-18T01:07:41.901Z,5.83
2022-11-18T01:10:10.676Z,5.67
2022-11-18T01:12:58.121Z,6.00
2022-11-18T01:15:26.526Z,5.07
2022-11-18T01:17:54.828Z,4.60
2022-11-18T01:20:23.135Z,5.70
2022-11-18T01:22:51.509Z,6.50
2022-11-18T01:25:19.868Z,6.23
2022-11-18T01:27:49.590Z,5.50
2022-11-18T01:30:18.075Z,6.27
2022-11-18T01:32:46.474Z,6.97
2022-11-18T01:35:14.856Z,5.40
2022-11-18T01:37:43.167Z,5.60
2022-11-18T01:40:12.712Z,5.87
2022-11-18T01:42:41.026Z,6.77
2022-11-18T01:45:24.246Z,4.27
2022-11-18T01:47:56.657Z,7.33
2022-11-18T01:50:26.147Z,7.20
2022-11-18T01:52:56.440Z,7.07
2022-11-18T01:55:26.692Z,5.50
2022-11-18T01:57:58.804Z,7.97
2022-11-18T02:00:27.203Z,6.83
2022-11-18T02:02:57.347Z,7.33
2022-11-18T02:05:25.915Z,7.13
2022-11-18T02:07:54.308Z,7.73
2022-11-18T02:10:25.214Z,7.50
2022-11-18T02:12:56.488Z,6.30
2022-11-18T02:15:28.483Z,5.33
2022-11-18T02:18:00.891Z,8.50
2022-11-18T02:20:31.662Z,7.20
2022-11-18T02:23:10.180Z,7.27
2022-11-18T02:25:46.249Z,8.43
2022-11-18T02:28:34.168Z,7.33
2022-11-18T02:31:06.652Z,8.17
2022-11-18T02:33:38.559Z,6.10
2022-11-18T02:36:09.982Z,5.47
2022-11-18T02:38:42.660Z,7.10
2022-11-18T02:41:12.182Z,9.10
2022-11-18T02:43:42.960Z,5.50
2022-11-18T02:46:15.208Z,9.40
2022-11-18T02:48:46.587Z,7.87
2022-11-18T02:51:17.939Z,9.37
2022-11-18T02:53:47.693Z,7.37
2022-11-18T02:56:17.452Z,6.53
2022-11-18T02:58:45.954Z,10.43
2022-11-18T03:01:20.093Z,11.07
2022-11-18T03:03:48.851Z,10.63
2022-11-18T03:06:26.870Z,11.10
2022-11-18T03:09:00.572Z,10.03
2022-11-18T03:11:30.368Z,9.57
2022-11-18T03:14:06.592Z,7.03
2022-11-18T03:16:40.345Z,13.33
2022-11-18T03:19:11.616Z,6.93
2022-11-18T03:21:42.942Z,9.87
2022-11-18T03:24:15.158Z,10.90
2022-11-18T03:26:46.852Z,9.13
2022-11-18T03:29:17.884Z,8.93
2022-11-18T03:31:49.237Z,8.73
2022-11-18T03:34:21.228Z,10.17
2022-11-18T03:36:52.316Z,11.77
2022-11-18T03:39:21.500Z,10.17
2022-11-18T03:41:53.349Z,11.40
2022-11-18T03:44:25.294Z,10.73
2022-11-18T03:46:57.706Z,11.13
2022-11-18T03:49:28.832Z,12.73
2022-11-18T03:51:58.979Z,9.50
2022-11-18T03:54:29.164Z,12.73
2022-11-18T03:56:59.803Z,9.10
2022-11-18T03:59:31.027Z,11.93
2022-11-18T04:02:05.369Z,5.83
2022-11-18T04:04:34.217Z,13.30
2022-11-18T04:07:05.452Z,6.57
2022-11-18T04:09:36.742Z,9.33
2022-11-18T04:12:07.389Z,9.00
2022-11-18T04:14:36.769Z,12.50
2022-11-18T04:17:09.777Z,10.10
2022-11-18T04:19:38.680Z,11.13
2022-11-18T04:22:07.204Z,10.80
2022-11-18T04:24:35.509Z,7.97
2022-11-18T04:27:03.835Z,6.20
2022-11-18T04:29:32.415Z,8.87
2022-11-18T04:32:00.910Z,8.43
2022-11-18T04:34:30.788Z,12.77
2022-11-18T04:36:59.166Z,10.57
2022-11-18T04:39:27.566Z,5.70
2022-11-18T04:41:58.779Z,4.17
2022-11-18T04:44:28.253Z,7.00
2022-11-18T04:46:57.101Z,3.33
2022-11-18T04:49:25.639Z,4.57
2022-11-18T04:51:55.789Z,1.03
2022-11-18T04:54:24.480Z,1.93
2022-11-18T04:56:53.138Z,0.70
2022-11-18T04:59:22.434Z,5.70
2022-11-18T05:01:51.403Z,0.50
2022-11-18T05:04:20.521Z,4.23
2022-11-18T05:06:49.174Z,2.83
2022-11-18T05:09:19.281Z,11.47
2022-11-18T05:12:05.488Z,11.70
2022-11-18T05:14:34.131Z,8.30
2022-11-18T05:17:03.316Z,5.77
2022-11-18T05:19:31.690Z,7.83
2022-11-18T05:22:00.431Z,5.97
2022-11-18T05:24:30.075Z,10.83
2022-11-18T05:26:58.349Z,10.50
2022-11-18T05:29:26.687Z,11.57
2022-11-18T05:31:55.023Z,10.73
2022-11-18T05:34:23.397Z,13.20
2022-11-18T05:36:51.732Z,9.10
2022-11-18T05:39:20.456Z,11.83
2022-11-18T05:42:08.411Z,10.03
2022-11-18T05:44:36.742Z,11.17
2022-11-18T05:47:05.116Z,10.57
2022-11-18T05:49:33.421Z,8.63
2022-11-18T05:52:01.872Z,10.63
2022-11-18T05:54:30.293Z,11.30
2022-11-18T05:57:00.002Z,11.87
2022-11-18T05:59:28.442Z,11.50
2022-11-18T06:01:58.834Z,10.60
2022-11-18T06:04:29.460Z,9.23
2022-11-18T06:07:00.601Z,9.83
2022-11-18T06:09:30.339Z,10.40
2022-11-18T06:12:01.878Z,12.13
2022-11-18T06:14:33.104Z,7.33
2022-11-18T06:17:02.931Z,6.43
2022-11-18T06:19:31.749Z,12.97
2022-11-18T06:22:00.288Z,11.53
2022-11-18T06:24:28.661Z,11.23
2022-11-18T06:26:57.095Z,7.17
2022-11-18T06:29:28.116Z,9.57
2022-11-18T06:31:56.778Z,12.53
2022-11-18T06:34:25.447Z,11.07
2022-11-18T06:36:53.842Z,11.27
2022-11-18T06:39:22.157Z,10.87
2022-11-18T06:41:50.550Z,6.87
2022-11-18T06:44:17.867Z,8.80
2022-11-18T06:46:56.629Z,8.67
2022-11-18T06:49:25.345Z,7.73
2022-11-18T06:51:54.026Z,9.77
2022-11-18T06:54:22.366Z,12.00
2022-11-18T06:56:50.755Z,6.67
2022-11-18T06:59:23.678Z,8.20
2022-11-18T07:01:54.194Z,10.57
2022-11-18T07:04:22.649Z,8.63
2022-11-18T07:06:51.080Z,10.10
2022-11-18T07:09:19.758Z,8.73
2022-11-18T07:11:48.445Z,8.17
2022-11-18T07:14:16.795Z,8.17
2022-11-18T07:16:45.167Z,7.97
2022-11-18T07:19:15.384Z,6.30
2022-11-18T07:21:43.948Z,9.70
2022-11-18T07:24:14.161Z,6.70
2022-11-18T07:26:42.765Z,10.40
2022-11-18T07:29:11.603Z,7.97
2022-11-18T07:31:40.110Z,10.60
2022-11-18T07:34:08.864Z,9.53
2022-11-18T07:36:38.517Z,3.93
2022-11-18T07:39:07.600Z,10.03
2022-11-18T07:41:36.232Z,9.00
2022-11-18T07:44:06.496Z,9.90
2022-11-18T07:46:35.761Z,10.20
2022-11-18T07:49:05.629Z,11.97
2022-11-18T07:51:35.585Z,10.27
2022-11-18T07:54:07.254Z,9.10
2022-11-18T07:56:35.587Z,10.77
2022-11-18T07:59:04.632Z,9.70
2022-11-18T08:01:33.377Z,7.97
2022-11-18T08:04:06.674Z,10.87
2022-11-18T08:06:35.555Z,8.83
2022-11-18T08:09:06.104Z,6.90
2022-11-18T08:11:34.604Z,10.87
2022-11-18T08:14:03.102Z,7.47
2022-11-18T08:16:31.754Z,7.63
2022-11-18T08:19:01.218Z,12.53
2022-11-18T08:21:29.657Z,10.97
2022-11-18T08:23:58.693Z,11.53
2022-11-18T08:26:29.598Z,10.87
2022-11-18T08:28:59.176Z,11.10
2022-11-18T08:31:28.839Z,8.93
2022-11-18T08:33:57.518Z,11.20
2022-11-18T08:36:27.359Z,9.77
2022-11-18T08:38:56.766Z,7.30
2022-11-18T08:41:30.277Z,7.00
2022-11-18T08:43:58.871Z,10.87
2022-11-18T08:46:27.294Z,8.87
2022-11-18T08:48:55.703Z,8.67
2022-11-18T08:51:24.325Z,8.53
2022-11-18T08:53:52.949Z,8.50
2022-11-18T08:56:22.574Z,7.80
2022-11-18T08:58:52.536Z,9.27
2022-11-18T09:01:21.218Z,9.30
2022-11-18T09:03:49.933Z,7.17
2022-11-18T09:06:19.003Z,8.47
2022-11-18T09:08:47.911Z,9.43
2022-11-18T09:11:17.794Z,5.17
2022-11-18T09:16:36.722Z,8.33
2022-11-18T09:19:24.900Z,7.53
2022-11-18T09:21:53.965Z,8.47
2022-11-18T09:24:22.392Z,8.57
2022-11-18T09:26:51.323Z,5.80
2022-11-18T09:29:20.033Z,5.50
2022-11-18T09:31:49.781Z,7.20
2022-11-18T09:34:18.532Z,7.77
2022-11-18T09:36:47.179Z,8.90
2022-11-18T09:39:17.640Z,7.20
2022-11-18T09:41:47.467Z,6.23
2022-11-18T09:44:23.327Z,4.90
2022-11-18T09:46:58.138Z,6.50
2022-11-18T09:49:29.860Z,6.33
2022-11-18T09:51:59.418Z,6.63
2022-11-18T09:54:28.622Z,3.90
2022-11-18T09:56:57.697Z,4.73
2022-11-18T09:59:27.597Z,6.20
2022-11-18T10:01:59.650Z,6.23
2022-11-18T10:04:30.358Z,7.00
2022-11-18T10:06:59.251Z,4.67
2022-11-18T10:09:30.002Z,6.87
2022-11-18T10:12:04.594Z,4.43
2022-11-18T10:14:38.889Z,6.07
2022-11-18T10:17:12.482Z,6.40
2022-11-18T10:19:43.246Z,6.57
2022-11-18T10:22:24.584Z,6.80
2022-11-18T10:24:54.014Z,6.77
2022-11-18T10:27:22.771Z,5.97
2022-11-18T10:29:54.592Z,6.40
2022-11-18T10:32:24.632Z,6.70
2022-11-18T10:34:53.897Z,6.27
2022-11-18T10:37:52.576Z,3.80
2022-11-18T10:40:25.924Z,6.37
2022-11-18T10:42:54.253Z,6.40
2022-11-18T10:45:27.049Z,6.00
2022-11-18T10:48:01.688Z,1.60
2022-11-18T10:50:32.454Z,3.77
2022-11-18T10:53:00.853Z,3.50
2022-11-18T10:55:29.568Z,2.63
2022-11-18T10:58:00.119Z,4.60
2022-11-18T11:00:36.054Z,2.37
2022-11-18T11:03:17.219Z,4.33
2022-11-18T11:05:45.573Z,5.17
2022-11-18T11:08:36.540Z,5.30
2022-11-18T11:11:05.636Z,6.37
2022-11-18T11:13:34.516Z,5.13
2022-11-18T11:16:05.182Z,4.40
2022-11-18T11:18:45.077Z,6.10
2022-11-18T11:21:13.960Z,5.70
2022-11-18T11:23:42.850Z,6.03
2022-11-18T11:29:07.459Z,6.30
2022-11-18T11:31:40.514Z,7.57
2022-11-18T11:34:13.664Z,6.20
2022-11-18T11:36:46.097Z,4.23
2022-11-18T11:39:27.024Z,7.67
2022-11-18T11:42:03.348Z,8.03
2022-11-18T11:44:37.864Z,6.73
2022-11-18T11:47:30.544Z,5.73
2022-11-18T11:50:03.545Z,7.47
2022-11-18T11:52:36.958Z,4.60
2022-11-18T11:55:12.629Z,5.70
2022-11-18T11:57:46.004Z,9.03
2022-11-18T12:00:17.899Z,4.87
2022-11-18T12:03:07.463Z,7.70
2022-11-18T12:05:39.305Z,7.93
2022-11-18T12:08:11.262Z,6.97
2022-11-18T12:10:54.944Z,10.63
2022-11-18T12:13:29.376Z,8.47
2022-11-18T12:16:11.340Z,8.43
2022-11-18T12:18:43.305Z,12.33
2022-11-18T12:21:35.170Z,11.23
2022-11-18T12:24:18.728Z,7.93
2022-11-18T12:26:49.283Z,10.80
2022-11-18T12:29:28.557Z,11.33
2022-11-18T12:31:57.782Z,11.47
2022-11-18T12:34:40.624Z,5.10
2022-11-18T12:37:28.020Z,5.17
2022-11-18T12:40:00.256Z,7.03
2022-11-18T12:42:57.994Z,9.33
2022-11-18T12:45:59.624Z,9.63
2022-11-18T12:48:29.623Z,2.30
2022-11-18T12:50:58.705Z,2.63
2022-11-18T12:53:38.481Z,7.77
2022-11-18T12:56:22.113Z,8.67
2022-11-18T12:58:52.969Z,8.47
2022-11-18T13:01:25.469Z,13.03
2022-11-18T13:03:54.512Z,9.33
2022-11-18T13:06:25.810Z,2.43
2022-11-18T13:08:56.768Z,10.97
2022-11-18T13:11:44.127Z,11.27
2022-11-18T13:14:35.469Z,4.30
2022-11-18T13:17:42.616Z,1.93
2022-11-18T13:20:20.727Z,3.90
2022-11-18T13:23:09.388Z,8.83
2022-11-18T13:25:37.877Z,5.87
2022-11-18T13:28:11.925Z,3.83
2022-11-18T13:30:46.852Z,5.63
2022-11-18T13:33:15.471Z,1.10
2022-11-18T13:35:46.687Z,7.13
2022-11-18T13:38:28.125Z,5.93
2022-11-18T13:41:12.720Z,9.67
2022-11-18T13:43:41.220Z,7.90
2022-11-18T13:46:15.704Z,6.43
2022-11-18T13:48:48.951Z,3.87
2022-11-18T13:51:17.467Z,2.20
2022-11-18T13:53:47.705Z,8.50
2022-11-18T13:56:19.134Z,0.90
2022-11-18T13:59:16.389Z,3.23
2022-11-18T14:01:46.735Z,4.60
2022-11-18T14:04:19.655Z,6.40
2022-11-18T14:06:52.691Z,4.50
2022-11-18T14:09:24.657Z,4.03
2022-11-18T14:12:01.869Z,8.10
2022-11-18T14:14:33.472Z,4.63
2022-11-18T14:17:16.790Z,4.47
2022-11-18T14:19:48.842Z,3.77
2022-11-18T14:22:24.358Z,7.87
2022-11-18T14:24:57.847Z,2.53
2022-11-18T14:27:40.088Z,6.13
2022-11-18T14:30:28.532Z,4.30
2022-11-18T14:33:21.595Z,4.37
2022-11-18T14:35:53.017Z,7.70
2022-11-18T14:38:40.730Z,4.07
2022-11-18T14:41:12.370Z,5.97
2022-11-18T14:43:46.047Z,5.33
2022-11-18T14:46:16.091Z,5.33
2022-11-18T14:48:44.791Z,5.40
2022-11-18T14:51:16.038Z,4.40
2022-11-18T14:53:45.072Z,4.97
2022-11-18T14:56:16.015Z,6.77
2022-11-18T14:58:44.448Z,4.27
2022-11-18T15:01:13.953Z,4.80
2022-11-18T15:03:42.337Z,7.17
2022-11-18T15:06:16.540Z,5.97
2022-11-18T15:08:46.038Z,4.70
2022-11-18T15:11:14.852Z,6.10
2022-11-18T15:13:43.911Z,3.67
2022-11-18T15:16:15.175Z,8.60
2022-11-18T15:18:46.733Z,7.00
2022-11-18T15:21:16.604Z,5.60
2022-11-18T15:23:44.989Z,2.43
2022-11-18T15:26:17.983Z,5.53
2022-11-18T15:28:47.758Z,8.07
2022-11-18T15:31:16.388Z,4.60
2022-11-18T15:33:45.273Z,5.47
2022-11-18T15:36:14.750Z,8.87
2022-11-18T15:38:44.879Z,5.97
2022-11-18T15:41:16.964Z,5.67
2022-11-18T15:43:45.511Z,7.97
2022-11-18T15:46:14.005Z,5.50
2022-11-18T15:48:42.790Z,7.57
2022-11-18T15:51:12.300Z,4.90
2022-11-18T15:53:40.929Z,0.83
2022-11-18T15:56:17.767Z,2.40
2022-11-18T15:58:46.411Z,3.17
2022-11-18T16:01:14.801Z,1.90
2022-11-18T16:03:43.250Z,3.37
2022-11-18T16:06:12.093Z,2.10
2022-11-18T16:08:41.003Z,9.17
2022-11-18T16:11:30.197Z,8.50
2022-11-18T16:14:02.759Z,1.87
2022-11-18T16:16:31.428Z,7.17
2022-11-18T16:19:04.353Z,12.20
2022-11-18T16:21:34.231Z,9.87
2022-11-18T16:24:03.238Z,10.90
2022-11-18T16:26:32.441Z,9.67
2022-11-18T16:29:02.955Z,9.03
2022-11-18T16:31:43.741Z,8.23
2022-11-18T16:34:12.921Z,3.83
2022-11-18T16:36:45.435Z,7.27
2022-11-18T16:39:14.923Z,3.47
2022-11-18T16:41:44.239Z,3.53
2022-11-18T16:44:17.049Z,5.17
2022-11-18T16:46:47.962Z,10.40
2022-11-18T16:49:17.522Z,6.90
2022-11-18T16:51:47.140Z,8.77
2022-11-18T16:54:18.056Z,7.03
2022-11-18T16:56:46.611Z,7.53
2022-11-18T16:59:17.307Z,6.67
2022-11-18T17:01:46.300Z,9.83
2022-11-18T17:04:14.727Z,7.27
2022-11-18T17:06:43.309Z,5.17
2022-11-18T17:09:14.945Z,4.20
2022-11-18T17:11:43.432Z,7.03
2022-11-18T17:14:12.342Z,6.67
2022-11-18T17:16:42.080Z,5.30
2022-11-18T17:19:13.189Z,8.43
2022-11-18T17:21:41.722Z,8.10
2022-11-18T17:24:10.655Z,3.70
2022-11-18T17:26:38.975Z,3.17
2022-11-18T17:29:07.354Z,7.27
2022-11-18T17:31:35.859Z,4.13
2022-11-18T17:34:05.575Z,4.40
2022-11-18T17:36:34.061Z,3.50
2022-11-18T17:39:02.423Z,4.03
2022-11-18T17:41:48.527Z,7.20
2022-11-18T17:44:18.101Z,9.60
2022-11-18T17:46:47.324Z,9.00
2022-11-18T17:49:18.779Z,7.07
2022-11-18T17:51:47.474Z,6.07
2022-11-18T17:54:16.506Z,6.67
2022-11-18T17:56:45.003Z,5.30
2022-11-18T17:59:14.566Z,8.10
2022-11-18T18:01:43.000Z,5.47
2022-11-18T18:04:11.669Z,9.57
2022-11-18T18:06:41.555Z,9.67
2022-11-18T18:09:10.270Z,11.83
2022-11-18T18:11:38.632Z,9.70
2022-11-18T18:14:15.269Z,11.77
2022-11-18T18:16:44.701Z,9.93
2022-11-18T18:19:14.450Z,8.67
2022-11-18T18:21:44.436Z,10.63
2022-11-18T18:24:14.755Z,11.30
2022-11-18T18:26:43.263Z,8.90
2022-11-18T18:29:11.610Z,6.90
2022-11-18T18:31:39.954Z,11.03
2022-11-18T18:34:08.280Z,6.07
2022-11-18T18:36:36.675Z,7.73
2022-11-18T18:39:06.511Z,5.00
2022-11-18T18:41:34.882Z,11.47
2022-11-18T18:44:03.228Z,10.03
2022-11-18T18:46:32.141Z,12.37
2022-11-18T18:49:02.785Z,10.47
2022-11-18T18:51:32.796Z,14.40
2022-11-18T18:54:01.364Z,11.97
2022-11-18T18:56:31.451Z,9.80
2022-11-18T18:58:59.824Z,12.10
2022-11-18T19:01:28.702Z,11.27
2022-11-18T19:03:58.042Z,6.83
2022-11-18T19:09:16.040Z,7.47
2022-11-18T19:12:03.797Z,17.97
2022-11-18T19:14:32.538Z,5.67
2022-11-18T19:17:06.376Z,8.20
2022-11-18T19:19:54.999Z,6.00
2022-11-18T19:22:23.457Z,10.40
2022-11-18T19:24:52.459Z,8.10
2022-11-18T19:27:22.819Z,13.57
2022-11-18T19:29:51.209Z,6.67
2022-11-18T19:32:19.562Z,6.47
2022-11-18T19:34:48.002Z,4.93
2022-11-18T19:37:16.376Z,11.47
2022-11-18T19:39:44.735Z,13.83
2022-11-18T19:42:13.166Z,12.37
2022-11-18T19:44:42.842Z,10.10
2022-11-18T19:47:11.157Z,13.30
2022-11-18T19:49:39.665Z,13.77
2022-11-18T19:52:08.110Z,14.77
2022-11-18T19:54:36.534Z,12.50
2022-11-18T19:57:04.991Z,12.27
2022-11-18T19:59:33.322Z,14.40
2022-11-18T20:02:03.125Z,9.87
2022-11-18T20:04:31.475Z,12.87
2022-11-18T20:06:59.928Z,7.90
2022-11-18T20:09:28.264Z,10.83
2022-11-18T20:11:56.605Z,12.67
2022-11-18T20:14:25.422Z,11.27
2022-11-18T20:16:53.982Z,9.23
2022-11-18T20:19:24.320Z,13.23
2022-11-18T20:21:52.773Z,10.43
2022-11-18T20:24:21.240Z,10.50
2022-11-18T20:26:50.178Z,12.63
2022-11-18T20:29:18.923Z,10.73
2022-11-18T20:31:47.427Z,12.13
2022-11-18T20:34:15.814Z,10.40
2022-11-18T20:36:46.574Z,12.27
2022-11-18T20:39:16.017Z,5.77
2022-11-18T20:42:04.448Z,10.57
2022-11-18T20:44:32.817Z,11.10
2022-11-18T20:47:01.116Z,8.53
2022-11-18T20:49:29.415Z,10.53
2022-11-18T20:51:59.118Z,9.00
2022-11-18T20:54:27.490Z,11.33
2022-11-18T20:56:55.834Z,4.43
2022-11-18T20:59:24.184Z,12.00
2022-11-18T21:01:52.467Z,13.13
2022-11-18T21:04:20.907Z,7.53
2022-11-18T21:06:49.297Z,9.77
2022-11-18T21:09:19.077Z,11.80
2022-11-18T21:11:47.488Z,6.70
2022-11-18T21:14:23.344Z,6.67
2022-11-18T21:16:53.818Z,7.47
2022-11-18T21:19:22.461Z,9.63
2022-11-18T21:21:53.017Z,10.93
2022-11-18T21:24:23.866Z,9.17
2022-11-18T21:26:54.530Z,8.97
2022-11-18T21:29:23.390Z,8.83
2022-11-18T21:31:52.370Z,12.77
2022-11-18T21:34:21.057Z,10.20
2022-11-18T21:36:54.355Z,9.63
2022-11-18T21:39:24.873Z,9.90
2022-11-18T21:41:56.742Z,8.03
2022-11-18T21:44:25.814Z,8.77
2022-11-18T21:46:54.224Z,9.03
2022-11-18T21:49:23.070Z,5.33
2022-11-18T21:51:51.614Z,9.13
2022-11-18T21:54:19.988Z,9.23
2022-11-18T21:56:49.725Z,13.37
2022-11-18T21:59:18.507Z,7.00
2022-11-18T22:01:47.204Z,12.27
2022-11-18T22:04:36.781Z,8.93
2022-11-18T22:07:05.269Z,9.60
2022-11-18T22:09:36.648Z,11.90
2022-11-18T22:12:07.914Z,8.00
2022-11-18T22:14:36.333Z,12.67
2022-11-18T22:17:04.769Z,15.97
2022-11-18T22:19:33.118Z,13.37
2022-11-18T22:22:01.778Z,15.00
2022-11-18T22:24:30.145Z,12.93
2022-11-18T22:26:59.137Z,12.70
2022-11-18T22:29:28.878Z,15.77
2022-11-18T22:31:57.248Z,14.23
2022-11-18T22:34:25.714Z,13.23
2022-11-18T22:36:54.085Z,12.70
2022-11-18T22:39:22.646Z,13.67
2022-11-18T22:42:08.813Z,14.50
2022-11-18T22:44:38.552Z,12.73
2022-11-18T22:47:06.971Z,14.37
2022-11-18T22:49:35.329Z,10.53
2022-11-18T22:52:03.679Z,16.70
2022-11-18T22:54:40.191Z,10.07
2022-11-18T22:57:09.100Z,14.13
2022-11-18T22:59:38.852Z,13.53
2022-11-18T23:02:07.529Z,12.93
2022-11-18T23:04:36.032Z,15.07
2022-11-18T23:07:04.404Z,14.33
2022-11-18T23:09:32.815Z,16.10
2022-11-18T23:12:18.902Z,15.97
2022-11-18T23:14:48.578Z,12.77
2022-11-18T23:17:16.947Z,17.97
2022-11-18T23:19:46.870Z,6.37
2022-11-18T23:22:15.617Z,14.73
2022-11-18T23:24:43.933Z,13.90
2022-11-18T23:27:12.283Z,16.60
2022-11-18T23:29:40.709Z,11.93
2022-11-18T23:32:10.571Z,11.67
2022-11-18T23:34:38.939Z,16.20
2022-11-18T23:37:07.351Z,7.57
2022-11-18T23:39:37.215Z,12.27
2022-11-18T23:42:05.991Z,14.20
2022-11-18T23:44:46.368Z,13.17
2022-11-18T23:47:16.146Z,12.73
2022-11-18T23:49:44.509Z,12.13
2022-11-18T23:52:12.864Z,11.10
2022-11-18T23:54:41.262Z,13.73
2022-11-18T23:57:09.718Z,12.10
2022-11-18T23:59:38.048Z,12.73
